Terminal Aerodrome Forecast
Issued by NWS

Current Version | Previous Version | Text Only | Print | Product List | Glossary On
Versions: 1 2 3 4 5 6 7 8 9 10 11 12 13 14 15 16 17 18
000
FTAK31 PANC 301732
TAFAAQ
TAF
PAAQ 301732Z 3018/0118 VRB06KT P6SM FEW070 BKN090
      TEMPO 3020/3024 14015G25KT
     FM010000 14015G25KT P6SM SCT070 BKN150
     FM010700 14010KT P6SM VCSH BKN070
     FM011200 03010KT P6SM VCSH BKN050=

USA.gov is the U.S. government's official web portal to all federal, state and local government web resources and services.